createdAt,value
2022-08-19T00:00:30.673Z,32.60
2022-08-19T00:02:32.705Z,33.33
2022-08-19T00:04:37.533Z,30.70
2022-08-19T00:06:41.694Z,31.83
2022-08-19T00:08:44.130Z,35.17
2022-08-19T00:10:46.931Z,27.80
2022-08-19T00:12:49.178Z,34.67
2022-08-19T00:14:51.179Z,30.90
2022-08-19T00:16:55.373Z,30.17
2022-08-19T00:18:57.747Z,35.37
2022-08-19T00:21:00.542Z,33.40
2022-08-19T00:23:05.048Z,30.97
2022-08-19T00:25:07.588Z,34.50
2022-08-19T00:27:26.418Z,32.93
2022-08-19T00:29:29.008Z,29.17
2022-08-19T00:31:32.139Z,32.57
2022-08-19T00:33:35.058Z,35.57
2022-08-19T00:35:39.509Z,33.67
2022-08-19T00:37:44.212Z,31.83
2022-08-19T00:39:46.245Z,32.93
2022-08-19T00:41:52.152Z,31.70
2022-08-19T00:44:14.735Z,29.70
2022-08-19T00:46:16.899Z,31.87
2022-08-19T00:48:19.787Z,30.90
2022-08-19T00:50:22.402Z,31.63
2022-08-19T00:52:31.274Z,34.90
2022-08-19T00:54:34.019Z,28.70
2022-08-19T00:56:37.003Z,27.97
2022-08-19T00:58:39.219Z,32.33
2022-08-19T01:00:41.241Z,25.00
2022-08-19T01:02:44.155Z,29.07
2022-08-19T01:04:46.279Z,26.07
2022-08-19T01:06:48.361Z,26.00
2022-08-19T01:08:51.367Z,25.23
2022-08-19T01:10:55.844Z,30.47
2022-08-19T01:12:59.434Z,27.17
2022-08-19T01:15:01.785Z,26.90
2022-08-19T01:17:04.119Z,22.70
2022-08-19T01:19:14.006Z,22.70
2022-08-19T01:21:40.990Z,20.97
2022-08-19T01:23:44.708Z,22.23
2022-08-19T01:25:50.934Z,24.47
2022-08-19T01:27:53.867Z,23.63
2022-08-19T01:29:56.231Z,22.77
2022-08-19T01:32:00.098Z,26.57
2022-08-19T01:34:03.133Z,21.07
2022-08-19T01:36:11.883Z,21.10
2022-08-19T01:38:25.741Z,23.93
2022-08-19T01:40:31.708Z,23.97
2022-08-19T01:42:33.753Z,25.20
2022-08-19T01:44:37.304Z,22.67
2022-08-19T01:46:40.270Z,24.87
2022-08-19T01:48:43.477Z,23.37
2022-08-19T01:50:45.519Z,25.90
2022-08-19T01:52:47.611Z,23.83
2022-08-19T01:55:04.444Z,26.17
2022-08-19T01:57:10.027Z,27.70
2022-08-19T01:59:14.880Z,24.10
2022-08-19T02:01:16.879Z,27.70
2022-08-19T02:03:18.921Z,24.20
2022-08-19T02:05:22.408Z,24.33
2022-08-19T02:07:25.052Z,26.33
2022-08-19T02:09:27.207Z,29.20
2022-08-19T02:11:34.541Z,28.30
2022-08-19T02:13:36.643Z,29.20
2022-08-19T02:15:39.018Z,30.37
2022-08-19T02:17:41.592Z,28.97
2022-08-19T02:19:43.579Z,30.23
2022-08-19T02:21:45.864Z,31.13
2022-08-19T02:23:48.869Z,32.57
2022-08-19T02:25:52.771Z,33.33
2022-08-19T02:27:55.006Z,32.37
2022-08-19T02:29:57.014Z,33.90
2022-08-19T02:31:59.107Z,28.90
2022-08-19T02:34:01.753Z,28.80
2022-08-19T02:36:07.864Z,30.10
2022-08-19T02:38:28.042Z,32.00
2022-08-19T02:40:34.802Z,28.60
2022-08-19T02:42:37.011Z,31.50
2022-08-19T02:44:39.390Z,28.13
2022-08-19T02:46:41.459Z,30.77
2022-08-19T02:48:43.707Z,30.73
2022-08-19T02:50:53.332Z,30.60
2022-08-19T02:52:55.716Z,30.17
2022-08-19T02:54:58.441Z,31.73
2022-08-19T02:57:00.742Z,29.00
2022-08-19T02:59:03.734Z,27.10
2022-08-19T03:01:06.024Z,29.93
2022-08-19T03:03:08.097Z,31.10
2022-08-19T03:05:11.051Z,31.67
2022-08-19T03:07:16.964Z,28.77
2022-08-19T03:09:20.660Z,29.63
2022-08-19T03:11:25.482Z,29.23
2022-08-19T03:13:27.715Z,33.80
2022-08-19T03:15:29.748Z,31.40
2022-08-19T03:17:31.797Z,36.07
2022-08-19T03:19:33.809Z,34.13
2022-08-19T03:21:36.020Z,37.20
2022-08-19T03:23:37.963Z,38.80
2022-08-19T03:25:43.057Z,34.63
2022-08-19T03:27:45.020Z,39.87
2022-08-19T03:29:46.998Z,39.30
2022-08-19T03:31:53.058Z,37.90
2022-08-19T03:33:55.223Z,42.00
2022-08-19T03:36:16.254Z,41.67
2022-08-19T03:38:18.205Z,38.77
2022-08-19T03:40:20.254Z,47.90
2022-08-19T03:42:38.813Z,46.63
2022-08-19T03:44:45.894Z,42.23
2022-08-19T03:46:52.842Z,45.63
2022-08-19T03:48:56.756Z,50.50
2022-08-19T03:51:00.008Z,47.67
2022-08-19T03:53:02.106Z,53.00
2022-08-19T03:55:04.736Z,43.87
2022-08-19T03:57:07.068Z,48.10
2022-08-19T03:59:11.758Z,45.37
2022-08-19T04:01:23.142Z,44.43
2022-08-19T04:03:37.253Z,46.17
2022-08-19T04:05:39.284Z,48.10
2022-08-19T04:07:41.770Z,47.90
2022-08-19T04:09:44.182Z,51.27
2022-08-19T04:11:52.138Z,50.80
2022-08-19T04:13:54.932Z,50.70
2022-08-19T04:15:57.604Z,49.13
2022-08-19T04:17:59.555Z,53.70
2022-08-19T04:20:01.643Z,56.70
2022-08-19T04:22:09.299Z,62.27
2022-08-19T04:24:11.763Z,53.73
2022-08-19T04:26:19.619Z,55.40
2022-08-19T04:28:22.567Z,48.77
2022-08-19T04:30:24.500Z,56.17
2022-08-19T04:32:26.533Z,58.53
2022-08-19T04:34:30.636Z,55.43
2022-08-19T04:36:35.217Z,55.20
2022-08-19T04:38:37.204Z,63.33
2022-08-19T04:41:02.622Z,61.47
2022-08-19T04:43:04.765Z,58.73
2022-08-19T04:45:12.429Z,60.13
2022-08-19T04:47:14.657Z,62.37
2022-08-19T04:49:18.360Z,64.33
2022-08-19T04:51:21.710Z,69.60
2022-08-19T04:53:37.644Z,66.60
2022-08-19T04:55:41.954Z,70.00
2022-08-19T04:57:43.951Z,76.20
2022-08-19T04:59:45.888Z,75.40
2022-08-19T05:01:51.926Z,69.03
2022-08-19T05:03:53.908Z,66.93
2022-08-19T05:05:56.033Z,67.47
2022-08-19T05:07:58.436Z,69.93
2022-08-19T05:10:00.471Z,72.93
2022-08-19T05:12:02.676Z,75.83
2022-08-19T05:14:05.117Z,77.70
2022-08-19T05:16:07.526Z,82.43
2022-08-19T05:18:35.987Z,84.57
2022-08-19T05:20:58.051Z,78.97
2022-08-19T05:23:00.086Z,72.10
2022-08-19T05:25:13.777Z,81.30
2022-08-19T05:27:16.020Z,71.17
2022-08-19T05:29:20.580Z,68.30
2022-08-19T05:31:24.389Z,76.20
2022-08-19T05:33:26.475Z,80.10
2022-08-19T05:35:29.408Z,71.90
2022-08-19T05:37:36.783Z,69.20
2022-08-19T05:39:39.219Z,70.30
2022-08-19T05:41:50.004Z,64.00
2022-08-19T05:43:52.005Z,64.13
2022-08-19T05:45:53.942Z,61.93
2022-08-19T05:47:55.947Z,70.47
2022-08-19T05:49:57.922Z,75.17
2022-08-19T05:52:04.762Z,64.90
2022-08-19T05:54:08.191Z,71.07
2022-08-19T05:56:13.312Z,70.00
2022-08-19T05:58:15.315Z,59.50
2022-08-19T06:00:20.437Z,58.73
2022-08-19T06:02:29.458Z,62.00
2022-08-19T06:04:31.736Z,59.93
2022-08-19T06:06:35.475Z,57.77
2022-08-19T06:08:39.127Z,59.60
2022-08-19T06:10:41.106Z,55.97
2022-08-19T06:12:43.075Z,60.57
2022-08-19T06:14:45.019Z,66.00
2022-08-19T06:16:48.549Z,61.03
2022-08-19T06:18:54.989Z,63.70
2022-08-19T06:20:57.003Z,57.50
2022-08-19T06:23:00.099Z,56.20
2022-08-19T06:25:02.300Z,61.80
2022-08-19T06:27:06.624Z,60.17
2022-08-19T06:29:10.499Z,67.53
2022-08-19T06:31:28.802Z,64.80
2022-08-19T06:33:30.822Z,65.20
2022-08-19T06:35:33.718Z,71.60
2022-08-19T06:37:36.700Z,65.63
2022-08-19T06:39:42.068Z,66.90
2022-08-19T06:41:51.234Z,63.47
2022-08-19T06:43:55.748Z,61.43
2022-08-19T06:45:59.943Z,67.03
2022-08-19T06:48:03.675Z,62.73
2022-08-19T06:50:06.234Z,68.80
2022-08-19T06:52:09.752Z,67.43
2022-08-19T06:54:19.831Z,62.90
2022-08-19T06:56:26.088Z,62.70
2022-08-19T06:58:28.112Z,67.57
2022-08-19T07:00:34.780Z,62.13
2022-08-19T07:02:38.471Z,62.70
2022-08-19T07:04:42.550Z,62.03
2022-08-19T07:06:45.308Z,59.70
2022-08-19T07:08:56.855Z,62.77
2022-08-19T07:10:59.936Z,65.87
2022-08-19T07:13:02.097Z,58.90
2022-08-19T07:15:09.639Z,59.33
2022-08-19T07:17:12.899Z,62.40
2022-08-19T07:19:16.102Z,61.53
2022-08-19T07:21:25.617Z,63.87
2022-08-19T07:23:31.617Z,61.33
2022-08-19T07:25:33.711Z,59.20
2022-08-19T07:27:35.722Z,58.10
2022-08-19T07:29:37.985Z,57.37
2022-08-19T07:31:40.278Z,52.53
2022-08-19T07:33:47.756Z,57.00
2022-08-19T07:35:50.874Z,58.93
2022-08-19T07:37:54.185Z,59.00
2022-08-19T07:39:56.537Z,55.27
2022-08-19T07:42:00.171Z,50.87
2022-08-19T07:44:04.568Z,52.13
2022-08-19T07:48:15.458Z,51.90
2022-08-19T07:50:19.556Z,49.10
2022-08-19T07:52:21.570Z,50.67
2022-08-19T07:54:25.223Z,44.87
2022-08-19T07:56:27.752Z,49.57
2022-08-19T07:58:29.997Z,50.20
2022-08-19T08:00:31.991Z,49.33
2022-08-19T08:02:33.999Z,43.00
2022-08-19T08:04:54.955Z,42.77
2022-08-19T08:07:15.265Z,47.13
2022-08-19T08:09:23.107Z,50.40
2022-08-19T08:11:27.059Z,41.20
2022-08-19T08:13:31.614Z,44.10
2022-08-19T08:15:35.632Z,42.97
2022-08-19T08:17:51.468Z,44.73
2022-08-19T08:19:54.958Z,39.87
2022-08-19T08:21:59.249Z,44.50
2022-08-19T08:26:08.212Z,42.60
2022-08-19T08:28:17.396Z,43.13
2022-08-19T08:30:22.900Z,45.00
2022-08-19T08:32:25.111Z,45.90
2022-08-19T08:34:27.538Z,42.90
2022-08-19T08:36:29.840Z,44.87
2022-08-19T08:38:36.930Z,46.30
2022-08-19T08:40:56.893Z,49.90
2022-08-19T08:43:23.976Z,45.10
2022-08-19T08:45:26.231Z,43.10
2022-08-19T08:47:36.192Z,44.33
2022-08-19T08:49:52.471Z,44.57
2022-08-19T08:52:25.527Z,38.90
2022-08-19T08:54:41.504Z,44.37
2022-08-19T08:56:57.848Z,41.07
2022-08-19T08:59:04.934Z,44.00
2022-08-19T09:01:07.123Z,44.67
2022-08-19T09:03:17.877Z,42.23
2022-08-19T09:05:25.751Z,45.17
2022-08-19T09:07:57.033Z,46.37
2022-08-19T09:10:25.798Z,44.53
2022-08-19T09:12:52.865Z,47.13
2022-08-19T09:15:09.048Z,49.00
2022-08-19T09:17:11.826Z,43.90
2022-08-19T09:19:14.052Z,50.37
2022-08-19T09:21:17.200Z,41.73
2022-08-19T09:23:26.535Z,41.40
2022-08-19T09:25:29.581Z,44.73
2022-08-19T09:27:41.882Z,49.17
2022-08-19T09:29:45.002Z,44.93
2022-08-19T09:31:47.295Z,44.37
2022-08-19T09:33:49.685Z,49.23
2022-08-19T09:36:12.522Z,43.23
2022-08-19T09:38:23.963Z,46.13
2022-08-19T09:40:30.222Z,42.30
2022-08-19T09:42:35.363Z,46.33
2022-08-19T09:44:37.602Z,43.67
2022-08-19T09:46:39.826Z,41.53
2022-08-19T09:48:42.656Z,42.17
2022-08-19T09:50:51.874Z,46.67
2022-08-19T09:52:57.100Z,44.17
2022-08-19T09:55:00.603Z,41.73
2022-08-19T09:57:03.804Z,36.10
2022-08-19T09:59:10.517Z,42.83
2022-08-19T10:01:21.065Z,36.03
2022-08-19T10:03:25.503Z,35.80
2022-08-19T10:05:50.191Z,35.23
2022-08-19T10:07:52.500Z,42.93
2022-08-19T10:09:55.414Z,42.10
2022-08-19T10:11:58.382Z,35.53
2022-08-19T10:14:01.568Z,35.03
2022-08-19T10:16:12.249Z,38.40
2022-08-19T10:18:15.004Z,37.00
2022-08-19T10:20:17.407Z,36.60
2022-08-19T10:22:20.115Z,36.40
2022-08-19T10:24:25.236Z,39.30
2022-08-19T10:26:30.654Z,36.53
2022-08-19T10:28:35.808Z,38.10
2022-08-19T10:30:41.820Z,35.10
2022-08-19T10:32:46.877Z,39.20
2022-08-19T10:34:50.179Z,34.77
2022-08-19T10:37:01.877Z,33.93
2022-08-19T10:39:08.503Z,37.20
2022-08-19T10:41:13.915Z,34.87
2022-08-19T10:43:16.058Z,30.17
2022-08-19T10:45:18.755Z,37.93
2022-08-19T10:47:25.023Z,30.13
2022-08-19T10:49:53.530Z,30.63
2022-08-19T10:52:18.771Z,30.50
2022-08-19T10:54:33.368Z,28.37
2022-08-19T10:56:56.082Z,28.33
2022-08-19T10:59:00.578Z,29.07
2022-08-19T11:01:02.818Z,28.00
2022-08-19T11:03:05.003Z,23.73
2022-08-19T11:05:12.671Z,25.87
2022-08-19T11:07:15.768Z,23.73
2022-08-19T11:09:21.343Z,26.20
2022-08-19T11:11:23.830Z,25.20
2022-08-19T11:13:26.203Z,25.17
2022-08-19T11:15:29.702Z,28.00
2022-08-19T11:17:32.611Z,25.50
2022-08-19T11:19:35.348Z,27.60
2022-08-19T11:21:40.482Z,26.03
2022-08-19T11:23:42.662Z,22.57
2022-08-19T11:25:46.318Z,24.67
2022-08-19T11:27:51.973Z,22.10
2022-08-19T11:29:54.238Z,21.03
2022-08-19T11:31:56.626Z,25.43
2022-08-19T11:34:00.754Z,24.73
2022-08-19T11:36:03.621Z,22.90
2022-08-19T11:38:09.718Z,22.90
2022-08-19T11:40:12.773Z,23.47
2022-08-19T11:42:33.633Z,24.30
2022-08-19T11:44:36.845Z,24.47
2022-08-19T11:46:39.444Z,23.20
2022-08-19T11:48:41.715Z,27.40
2022-08-19T11:50:44.573Z,27.63
2022-08-19T11:52:46.713Z,26.57
2022-08-19T11:54:49.093Z,24.03
2022-08-19T11:56:51.192Z,20.80
2022-08-19T11:58:54.309Z,21.77
2022-08-19T12:00:56.809Z,24.20
2022-08-19T12:02:58.892Z,23.90
2022-08-19T12:05:05.449Z,23.40
2022-08-19T12:07:09.177Z,36.70
2022-08-19T12:09:12.201Z,26.13
2022-08-19T12:11:14.922Z,27.93
2022-08-19T12:13:19.392Z,23.13
2022-08-19T12:15:21.551Z,23.77
2022-08-19T12:17:25.008Z,27.73
2022-08-19T12:19:27.147Z,19.80
2022-08-19T12:21:29.596Z,25.13
2022-08-19T12:23:31.728Z,24.23
2022-08-19T12:25:35.416Z,22.77
2022-08-19T12:27:40.379Z,31.67
2022-08-19T12:29:43.594Z,24.30
2022-08-19T12:31:45.687Z,19.97
2022-08-19T12:33:48.935Z,25.17
2022-08-19T12:35:51.539Z,24.03
2022-08-19T12:37:57.473Z,22.37
2022-08-19T12:40:00.002Z,20.43
2022-08-19T12:42:02.223Z,21.20
2022-08-19T12:44:04.417Z,19.10
2022-08-19T12:46:10.809Z,18.73
2022-08-19T12:48:33.898Z,21.37
2022-08-19T12:50:36.005Z,23.87
2022-08-19T12:52:38.202Z,25.40
2022-08-19T12:54:40.711Z,24.43
2022-08-19T12:56:43.617Z,22.53
2022-08-19T12:58:49.063Z,23.13
2022-08-19T13:00:54.994Z,21.63
2022-08-19T13:02:57.602Z,23.67
2022-08-19T13:04:59.724Z,21.10
2022-08-19T13:07:03.528Z,20.77
2022-08-19T13:09:06.362Z,20.90
2022-08-19T13:11:12.726Z,19.50
2022-08-19T13:13:15.082Z,18.10
2022-08-19T13:15:23.691Z,22.57
2022-08-19T13:17:26.462Z,20.73
2022-08-19T13:19:29.505Z,23.70
2022-08-19T13:21:31.808Z,22.83
2022-08-19T13:23:35.285Z,24.33
2022-08-19T13:25:37.794Z,21.83
2022-08-19T13:27:40.920Z,20.63
2022-08-19T13:30:01.981Z,31.77
2022-08-19T13:32:23.188Z,26.27
2022-08-19T13:34:34.945Z,38.10
2022-08-19T13:36:38.500Z,21.50
2022-08-19T13:38:41.038Z,23.87
2022-08-19T13:40:43.379Z,26.70
2022-08-19T13:42:48.577Z,26.83
2022-08-19T13:44:50.961Z,38.50
2022-08-19T13:46:54.237Z,89.47
2022-08-19T13:48:57.343Z,33.43
2022-08-19T13:50:59.580Z,22.80
2022-08-19T13:53:03.302Z,21.13
2022-08-19T13:55:06.312Z,19.20
2022-08-19T13:57:08.467Z,23.70
2022-08-19T13:59:11.143Z,18.80
2022-08-19T14:01:13.349Z,21.00
2022-08-19T14:03:15.637Z,24.93
2022-08-19T14:05:18.782Z,23.37
2022-08-19T14:07:22.566Z,32.93
2022-08-19T14:09:25.302Z,20.27
2022-08-19T14:11:28.366Z,19.20
2022-08-19T14:13:30.507Z,24.10
2022-08-19T14:15:32.740Z,27.83
2022-08-19T14:17:35.878Z,21.07
2022-08-19T14:19:38.007Z,22.33
2022-08-19T14:21:43.086Z,21.80
2022-08-19T14:23:46.088Z,18.50
2022-08-19T14:25:48.702Z,16.90
2022-08-19T14:27:51.208Z,16.97
2022-08-19T14:29:53.965Z,19.20
2022-08-19T14:31:59.984Z,16.37
2022-08-19T14:34:02.133Z,16.90
2022-08-19T14:36:05.394Z,16.80
2022-08-19T14:38:16.714Z,16.70
2022-08-19T14:40:24.105Z,16.60
2022-08-19T14:42:26.202Z,16.33
2022-08-19T14:44:28.421Z,18.80
2022-08-19T14:46:31.791Z,14.10
2022-08-19T14:48:33.942Z,16.23
2022-08-19T14:50:38.278Z,22.13
2022-08-19T14:52:41.061Z,14.30
2022-08-19T14:54:43.797Z,13.87
2022-08-19T14:56:45.986Z,15.53
2022-08-19T14:58:48.531Z,11.80
2022-08-19T15:00:50.747Z,15.57
2022-08-19T15:02:54.562Z,12.77
2022-08-19T15:04:58.381Z,14.30
2022-08-19T15:07:01.515Z,16.77
2022-08-19T15:09:04.525Z,13.53
2022-08-19T15:11:15.953Z,16.33
2022-08-19T15:13:18.776Z,14.57
2022-08-19T15:15:21.005Z,17.40
2022-08-19T15:17:25.776Z,13.67
2022-08-19T15:19:45.884Z,18.50
2022-08-19T15:21:48.058Z,12.90
2022-08-19T15:23:51.483Z,13.50
2022-08-19T15:25:56.565Z,19.57
2022-08-19T15:28:00.940Z,15.60
2022-08-19T15:30:04.679Z,16.83
2022-08-19T15:32:08.590Z,16.40
2022-08-19T15:34:10.697Z,18.40
2022-08-19T15:36:13.022Z,17.67
2022-08-19T15:38:25.940Z,17.80
2022-08-19T15:40:29.239Z,19.90
2022-08-19T15:42:31.389Z,17.30
2022-08-19T15:44:34.284Z,19.93
2022-08-19T15:46:38.804Z,17.50
2022-08-19T15:48:40.950Z,18.00
2022-08-19T15:50:43.151Z,16.77
2022-08-19T15:52:51.421Z,19.73
2022-08-19T15:54:53.523Z,17.40
2022-08-19T15:57:14.584Z,17.23
2022-08-19T15:59:43.688Z,18.33
2022-08-19T16:02:08.503Z,16.53
2022-08-19T16:04:32.465Z,15.80
2022-08-19T16:06:34.853Z,16.10
2022-08-19T16:08:49.019Z,16.30
2022-08-19T16:10:51.650Z,18.00
2022-08-19T16:12:53.955Z,17.37
2022-08-19T16:14:56.915Z,17.40
2022-08-19T16:16:59.140Z,15.90
2022-08-19T16:19:06.200Z,13.40
2022-08-19T16:21:17.388Z,16.00
2022-08-19T16:23:19.580Z,19.00
2022-08-19T16:25:23.706Z,14.87
2022-08-19T16:27:26.300Z,16.67
2022-08-19T16:29:34.468Z,13.20
2022-08-19T16:31:43.771Z,16.60
2022-08-19T16:33:45.961Z,14.20
2022-08-19T16:35:48.209Z,14.17
2022-08-19T16:38:02.756Z,14.03
2022-08-19T16:40:09.184Z,13.70
2022-08-19T16:42:12.291Z,15.23
2022-08-19T16:44:15.662Z,13.07
2022-08-19T16:46:19.053Z,15.87
2022-08-19T16:48:26.284Z,14.80
2022-08-19T16:50:48.391Z,15.63
2022-08-19T16:52:50.472Z,11.67
2022-08-19T16:54:52.760Z,12.07
2022-08-19T16:56:56.119Z,13.13
2022-08-19T16:59:01.315Z,17.13
2022-08-19T17:01:06.372Z,12.60
2022-08-19T17:03:15.140Z,16.20
2022-08-19T17:05:17.578Z,12.87
2022-08-19T17:07:19.969Z,11.40
2022-08-19T17:09:25.837Z,12.27
2022-08-19T17:11:31.187Z,13.60
2022-08-19T17:13:33.358Z,12.90
2022-08-19T17:15:35.484Z,14.77
2022-08-19T17:17:37.635Z,11.40
2022-08-19T17:19:41.857Z,11.10
2022-08-19T17:21:44.196Z,12.17
2022-08-19T17:23:48.424Z,12.97
2022-08-19T17:25:51.190Z,17.43
2022-08-19T17:27:54.236Z,12.10
2022-08-19T17:29:57.766Z,12.17
2022-08-19T17:32:00.019Z,12.57
2022-08-19T17:34:03.599Z,14.60
2022-08-19T17:36:06.902Z,20.13
2022-08-19T17:38:11.002Z,16.10
2022-08-19T17:40:14.003Z,18.90
2022-08-19T17:42:21.787Z,20.27
2022-08-19T17:44:24.321Z,18.30
2022-08-19T17:46:26.668Z,22.63
2022-08-19T17:48:32.107Z,16.10
2022-08-19T17:50:35.342Z,15.37
2022-08-19T17:52:37.956Z,19.53
2022-08-19T17:54:40.141Z,15.53
2022-08-19T17:56:43.661Z,17.40
2022-08-19T17:58:53.812Z,16.80
2022-08-19T18:01:03.031Z,17.00
2022-08-19T18:03:06.635Z,17.20
2022-08-19T18:05:09.217Z,18.43
2022-08-19T18:07:11.587Z,18.07
2022-08-19T18:09:13.707Z,18.40
2022-08-19T18:11:16.938Z,17.93
2022-08-19T18:13:19.139Z,18.60
2022-08-19T18:15:22.375Z,19.40
2022-08-19T18:17:26.030Z,19.97
2022-08-19T18:19:40.610Z,18.20
2022-08-19T18:21:44.540Z,25.00
2022-08-19T18:23:46.643Z,21.13
2022-08-19T18:25:48.959Z,24.00
2022-08-19T18:27:55.770Z,21.80
2022-08-19T18:29:59.423Z,20.63
2022-08-19T18:32:01.996Z,23.20
2022-08-19T18:34:04.552Z,20.77
2022-08-19T18:36:08.339Z,23.10
2022-08-19T18:38:29.972Z,23.00
2022-08-19T18:40:50.583Z,15.83
2022-08-19T18:43:11.404Z,19.17
2022-08-19T18:45:32.512Z,20.03
2022-08-19T18:47:53.252Z,18.17
2022-08-19T18:49:55.665Z,19.70
2022-08-19T18:51:58.369Z,19.53
2022-08-19T18:54:01.374Z,17.90
2022-08-19T18:56:04.647Z,17.57
2022-08-19T18:58:06.923Z,17.70
2022-08-19T19:00:10.165Z,19.60
2022-08-19T19:02:14.800Z,18.07
2022-08-19T19:04:18.892Z,17.40
2022-08-19T19:06:25.631Z,16.73
2022-08-19T19:08:28.141Z,20.77
2022-08-19T19:10:30.271Z,19.00
2022-08-19T19:12:36.039Z,16.80
2022-08-19T19:14:49.775Z,18.13
2022-08-19T19:16:52.442Z,16.77
2022-08-19T19:18:54.654Z,15.50
2022-08-19T19:20:57.330Z,18.50
2022-08-19T19:22:59.587Z,17.47
2022-08-19T19:25:02.271Z,17.57
2022-08-19T19:27:08.347Z,19.43
2022-08-19T19:29:10.510Z,18.03
2022-08-19T19:31:17.982Z,25.00
2022-08-19T19:33:20.225Z,19.40
2022-08-19T19:35:22.407Z,18.60
2022-08-19T19:37:24.554Z,21.33
2022-08-19T19:39:44.914Z,17.37
2022-08-19T19:41:48.379Z,17.63
2022-08-19T19:44:23.280Z,20.73
2022-08-19T19:46:17.987Z,17.90
2022-08-19T19:48:20.105Z,17.77
2022-08-19T19:50:22.420Z,20.07
2022-08-19T19:52:25.453Z,18.17
2022-08-19T19:54:27.573Z,21.10
2022-08-19T19:56:29.810Z,16.77
2022-08-19T19:58:36.255Z,20.17
2022-08-19T20:00:38.446Z,23.43
2022-08-19T20:02:40.685Z,22.20
2022-08-19T20:04:42.818Z,22.67
2022-08-19T20:06:46.283Z,48.57
2022-08-19T20:09:07.318Z,45.07
2022-08-19T20:11:09.454Z,36.87
2022-08-19T20:13:12.418Z,26.17
2022-08-19T20:15:14.928Z,23.63
2022-08-19T20:17:17.146Z,21.00
2022-08-19T20:19:21.583Z,22.80
2022-08-19T20:21:25.884Z,26.00
2022-08-19T20:23:28.028Z,20.53
2022-08-19T20:25:32.233Z,20.17
2022-08-19T20:27:40.120Z,21.33
2022-08-19T20:29:44.502Z,22.80
2022-08-19T20:31:57.456Z,23.23
2022-08-19T20:34:02.075Z,25.17
2022-08-19T20:36:04.920Z,17.70
2022-08-19T20:38:08.796Z,18.97
2022-08-19T20:40:13.146Z,18.40
2022-08-19T20:42:15.393Z,18.10
2022-08-19T20:44:17.538Z,25.20
2022-08-19T20:46:19.735Z,20.90
2022-08-19T20:48:21.911Z,20.40
2022-08-19T20:50:24.041Z,20.50
2022-08-19T20:52:26.296Z,22.63
2022-08-19T20:54:28.529Z,22.83
2022-08-19T20:56:30.920Z,21.13
2022-08-19T20:58:35.761Z,25.27
2022-08-19T21:00:38.649Z,21.27
2022-08-19T21:02:40.836Z,24.73
2022-08-19T21:04:42.962Z,19.67
2022-08-19T21:06:45.448Z,23.47
2022-08-19T21:08:48.887Z,21.77
2022-08-19T21:10:52.554Z,23.13
2022-08-19T21:12:55.525Z,32.93
2022-08-19T21:14:57.708Z,23.30
2022-08-19T21:16:59.891Z,25.80
2022-08-19T21:19:02.471Z,22.00
2022-08-19T21:21:04.754Z,23.70
2022-08-19T21:23:10.290Z,23.03
2022-08-19T21:25:12.871Z,21.93
2022-08-19T21:27:15.070Z,20.30
2022-08-19T21:29:17.186Z,22.83
2022-08-19T21:31:19.746Z,23.97
2022-08-19T21:33:22.478Z,21.13
2022-08-19T21:35:24.599Z,26.53
2022-08-19T21:37:26.844Z,22.10
2022-08-19T21:39:29.059Z,19.87
2022-08-19T21:41:31.167Z,25.07
2022-08-19T21:43:34.852Z,20.37
2022-08-19T21:45:37.103Z,19.47
2022-08-19T21:47:39.253Z,19.90
2022-08-19T21:49:41.625Z,23.57
2022-08-19T21:51:44.214Z,20.27
2022-08-19T21:53:46.423Z,26.63
2022-08-19T21:55:53.749Z,22.03
2022-08-19T21:58:00.049Z,19.13
2022-08-19T22:00:02.632Z,22.33
2022-08-19T22:02:19.601Z,24.20
2022-08-19T22:04:22.893Z,26.67
2022-08-19T22:06:28.180Z,26.60
2022-08-19T22:08:31.450Z,23.43
2022-08-19T22:10:34.278Z,22.87
2022-08-19T22:12:39.399Z,20.60
2022-08-19T22:14:54.173Z,20.90
2022-08-19T22:16:56.376Z,23.47
2022-08-19T22:18:59.543Z,20.90
2022-08-19T22:21:02.628Z,22.93
2022-08-19T22:23:06.609Z,22.90
2022-08-19T22:25:30.073Z,21.60
2022-08-19T22:27:35.267Z,25.87
2022-08-19T22:29:37.589Z,22.10
2022-08-19T22:31:39.720Z,21.40
2022-08-19T22:33:42.378Z,23.50
2022-08-19T22:35:46.277Z,19.53
2022-08-19T22:37:48.844Z,22.83
2022-08-19T22:39:51.090Z,26.37
2022-08-19T22:41:53.272Z,24.00
2022-08-19T22:43:55.611Z,25.73
2022-08-19T22:45:59.327Z,24.63
2022-08-19T22:48:01.555Z,27.50
2022-08-19T22:50:05.285Z,24.30
2022-08-19T22:52:18.191Z,24.70
2022-08-19T22:54:20.309Z,22.77
2022-08-19T22:56:22.394Z,25.57
2022-08-19T22:58:28.006Z,25.00
2022-08-19T23:00:30.797Z,27.93
2022-08-19T23:02:38.227Z,24.60
2022-08-19T23:04:40.350Z,27.17
2022-08-19T23:06:42.809Z,29.63
2022-08-19T23:08:44.813Z,25.50
2022-08-19T23:10:49.657Z,27.33
2022-08-19T23:12:52.545Z,29.03
2022-08-19T23:14:56.796Z,24.27
2022-08-19T23:16:59.368Z,27.17
2022-08-19T23:19:01.958Z,24.83
2022-08-19T23:21:04.959Z,27.37
2022-08-19T23:23:10.902Z,25.50
2022-08-19T23:25:16.245Z,23.10
2022-08-19T23:27:36.730Z,28.27
2022-08-19T23:29:57.480Z,26.77
2022-08-19T23:31:59.577Z,23.53
2022-08-19T23:34:02.389Z,27.63
2022-08-19T23:36:13.887Z,26.53
2022-08-19T23:38:16.089Z,22.23
2022-08-19T23:40:21.970Z,27.00
2022-08-19T23:42:25.557Z,25.97
2022-08-19T23:44:28.749Z,24.53
2022-08-19T23:46:30.778Z,29.93
2022-08-19T23:48:43.242Z,23.83
2022-08-19T23:50:46.001Z,30.37
2022-08-19T23:52:51.263Z,26.00
2022-08-19T23:54:53.241Z,25.97
2022-08-19T23:56:55.250Z,28.33
2022-08-19T23:58:57.196Z,27.07
